Terminal Aerodrome Forecast
Issued by NWS

Home | Current Version | Previous Version | Text Only | Print | Product List | Glossary On
Versions: 1 2 3 4 5 6 7 8 9 10 11 12 13
838
FTUS42 TJSJ 021721
TAFJSJ
TAF
TJSJ 021721Z 0218/0318 VRB04KT P6SM VCSH FEW035 SCT060
     FM022300 12004KT P6SM VCSH FEW030 SCT060
     FM031400 07010KT P6SM FEW030 SCT060 SCT080=

USA.gov is the U.S. government's official web portal to all federal, state and local government web resources and services.